Terminal Aerodrome Forecast
Issued by NWS

Home | Current Version | Previous Version | Text Only | Print | Product List | Glossary On
Versions: 1 2 3 4 5 6 7 8 9 10 11 12 13 14 15 16
000
FTUS46 KPDT 301100
TAFPSC
TAF
KPSC 301135Z 3012/3112 35005KT P6SM SCT200
     FM301900 22008KT P6SM SCT200
     FM310300 20004KT P6SM SCT080 SCT120 BKN200
     FM310900 21006KT P6SM SCT080 BKN120=

USA.gov is the U.S. government's official web portal to all federal, state and local government web resources and services.